Time;durP1;ratioP1;P1;durP2;ratioP2;P2;SDS_P1;SDS_P2;PMS_P1;PMS_P2;Temp;Humidity;BMP_temperature;BMP_pressure;BME280_temperature;BME280_humidity;BME280_pressure;Samples;Min_cycle;Max_cycle;Signal;HPM_P1;HPM_P2
2021/10/30 00:08:36;;;;;;;41.97;29.17;;;;;;;;;;6202668;22;20515;-61
2021/10/30 00:22:16;;;;;;;36.95;26.98;;;;;;;;;;6171713;22;20542;-65
2021/10/30 00:31:55;;;;;;;39.70;27.60;;;;;;;;;;5809308;23;20809;31
2021/10/30 00:50:53;;;;;;;39.28;27.55;;;;;;;;;;6175077;22;20550;-61
2021/10/30 00:58:43;;;;;;;39.83;27.60;;;;;;;;;;6171938;22;21810;-61
2021/10/30 01:06:15;;;;;;;41.83;29.25;;;;;;;;;;6167307;22;20569;31
2021/10/30 01:15:54;;;;;;;37.95;27.00;;;;;;;;;;6256763;22;20196;31
2021/10/30 01:20:18;;;;;;;40.47;28.25;;;;;;;;;;6320486;22;20505;-62
2021/10/30 01:27:02;;;;;;;40.88;26.85;;;;;;;;;;6167689;22;20534;31
2021/10/30 01:56:50;;;;;;;38.63;26.70;;;;;;;;;;6225413;22;20849;31
2021/10/30 02:08:21;;;;;;;42.00;28.42;;;;;;;;;;6173588;22;20554;31
2021/10/30 02:17:58;;;;;;;37.08;25.65;;;;;;;;;;6254840;22;20212;31
2021/10/30 02:25:02;;;;;;;39.42;26.23;;;;;;;;;;6177938;22;20207;31
2021/10/30 02:37:00;;;;;;;34.90;26.85;;;;;;;;;;6175917;22;20550;31
2021/10/30 02:39:26;;;;;;;37.15;26.08;;;;;;;;;;6171845;22;20247;31
2021/10/30 02:46:17;;;;;;;34.45;24.42;;;;;;;;;;6225266;22;20217;31
2021/10/30 02:50:42;;;;;;;37.05;25.17;;;;;;;;;;6204842;22;20541;-61
2021/10/30 03:05:26;;;;;;;38.58;25.95;;;;;;;;;;5965964;22;20538;31
2021/10/30 03:14:45;;;;;;;38.63;24.98;;;;;;;;;;6287081;22;20200;31
2021/10/30 03:19:33;;;;;;;35.47;23.98;;;;;;;;;;6166295;22;20937;-60
2021/10/30 03:21:59;;;;;;;34.72;24.48;;;;;;;;;;6140921;23;20196;31
2021/10/30 03:36:26;;;;;;;35.95;23.50;;;;;;;;;;5748269;23;20212;31
2021/10/30 03:47:51;;;;;;;35.25;22.98;;;;;;;;;;6236432;22;20514;31
2021/10/30 03:57:14;;;;;;;35.75;24.33;;;;;;;;;;6251294;22;20198;31
2021/10/30 04:09:13;;;;;;;37.00;24.13;;;;;;;;;;6260481;22;20563;31
2021/10/30 04:20:00;;;;;;;37.40;25.02;;;;;;;;;;6295938;22;20200;31
2021/10/30 04:25:40;;;;;;;36.03;26.35;;;;;;;;;;6168540;22;20517;-60
2021/10/30 04:32:35;;;;;;;36.08;23.98;;;;;;;;;;6290783;22;20607;31
2021/10/30 04:39:49;;;;;;;39.55;25.05;;;;;;;;;;6259636;22;20616;31
2021/10/30 04:47:00;;;;;;;36.47;24.30;;;;;;;;;;6168172;22;20522;31
2021/10/30 04:49:32;;;;;;;34.85;23.67;;;;;;;;;;6134889;23;20200;31
2021/10/30 04:53:52;;;;;;;37.03;24.88;;;;;;;;;;6175688;22;20574;31
2021/10/30 05:01:04;;;;;;;38.80;25.33;;;;;;;;;;6205971;22;20523;-61
2021/10/30 05:16:43;;;;;;;39.97;26.45;;;;;;;;;;6258697;22;20527;31
2021/10/30 05:33:30;;;;;;;38.45;24.65;;;;;;;;;;6169585;22;20330;31
2021/10/30 05:40:32;;;;;;;36.38;23.83;;;;;;;;;;6170658;22;20210;31
2021/10/30 05:47:26;;;;;;;35.08;22.23;;;;;;;;;;6196175;22;20222;31
2021/10/30 05:51:44;;;;;;;35.08;21.92;;;;;;;;;;6234464;22;20530;-60
2021/10/30 06:00:13;;;;;;;36.40;25.52;;;;;;;;;;6172888;22;20638;31
2021/10/30 06:09:34;;;;;;;36.28;23.50;;;;;;;;;;6167120;22;20215;31
2021/10/30 06:16:33;;;;;;;35.15;23.38;;;;;;;;;;6205091;22;20209;31
2021/10/30 06:24:38;;;;;;;36.47;24.33;;;;;;;;;;6178998;22;20207;-59
2021/10/30 06:38:56;;;;;;;31.25;21.85;;;;;;;;;;6226102;22;20217;31
2021/10/30 06:43:18;;;;;;;34.50;22.80;;;;;;;;;;6166666;22;20550;-61
2021/10/30 06:50:08;;;;;;;32.45;21.40;;;;;;;;;;6169838;22;20522;31
2021/10/30 06:59:42;;;;;;;31.70;21.02;;;;;;;;;;6163019;23;20222;31
2021/10/30 07:04:29;;;;;;;30.73;21.08;;;;;;;;;;6169093;22;23731;31
2021/10/30 07:28:24;;;;;;;31.08;19.23;;;;;;;;;;6257957;22;20200;31
2021/10/30 07:32:54;;;;;;;28.10;20.20;;;;;;;;;;6167727;22;20522;31
2021/10/30 07:42:28;;;;;;;28.90;20.33;;;;;;;;;;6225745;22;20525;-60
2021/10/30 07:49:48;;;;;;;27.73;20.27;;;;;;;;;;6225415;22;20230;31
2021/10/30 07:53:44;;;;;;;30.20;20.63;;;;;;;;;;6206833;22;20649;31
2021/10/30 08:03:55;;;;;;;27.33;20.48;;;;;;;;;;6346320;22;21771;31
2021/10/30 08:25:46;;;;;;;27.05;20.23;;;;;;;;;;6284735;22;20207;31
2021/10/30 08:29:59;;;;;;;29.77;20.88;;;;;;;;;;6318712;22;20513;31
2021/10/30 08:32:33;;;;;;;27.25;20.17;;;;;;;;;;6282978;22;20231;31
2021/10/30 08:39:15;;;;;;;28.05;20.17;;;;;;;;;;6247667;22;20202;31
2021/10/30 09:05:11;;;;;;;25.15;18.95;;;;;;;;;;6202521;22;20515;31
2021/10/30 09:14:47;;;;;;;26.30;19.95;;;;;;;;;;6168026;22;20203;31
2021/10/30 09:26:26;;;;;;;25.15;18.92;;;;;;;;;;6318551;22;22357;31
2021/10/30 09:36:13;;;;;;;22.52;17.92;;;;;;;;;;6223625;22;21388;31
2021/10/30 09:43:08;;;;;;;22.20;17.23;;;;;;;;;;6223992;22;20425;31
2021/10/30 09:47:28;;;;;;;24.80;18.27;;;;;;;;;;6234159;22;20744;31
2021/10/30 09:56:45;;;;;;;21.98;17.17;;;;;;;;;;6224461;22;20540;31
2021/10/30 10:04:31;;;;;;;21.83;16.90;;;;;;;;;;6221734;22;20197;31
2021/10/30 10:08:48;;;;;;;22.13;16.65;;;;;;;;;;6202428;22;20524;31
2021/10/30 10:18:24;;;;;;;21.67;15.93;;;;;;;;;;6223238;22;20191;31
2021/10/30 10:25:25;;;;;;;18.88;15.05;;;;;;;;;;6290535;22;20204;31
2021/10/30 10:29:33;;;;;;;20.02;15.50;;;;;;;;;;6202212;22;20520;-60
2021/10/30 10:36:20;;;;;;;20.85;16.83;;;;;;;;;;6233049;22;21385;31
2021/10/30 10:43:34;;;;;;;22.80;16.38;;;;;;;;;;6204343;22;20517;31
2021/10/30 10:57:58;;;;;;;19.50;16.08;;;;;;;;;;6259066;22;21683;31
2021/10/30 11:00:24;;;;;;;20.60;15.85;;;;;;;;;;6222959;22;21372;31
2021/10/30 11:11:54;;;;;;;22.05;16.90;;;;;;;;;;6164683;22;20533;31
2021/10/30 11:21:38;;;;;;;21.02;16.50;;;;;;;;;;6254912;22;20200;31
2021/10/30 11:50:05;;;;;;;24.17;17.75;;;;;;;;;;6286969;22;20204;31
2021/10/30 11:54:36;;;;;;;19.35;16.52;;;;;;;;;;6333400;22;20537;31
2021/10/30 12:11:08;;;;;;;21.27;17.92;;;;;;;;;;6217037;22;20206;31
2021/10/30 12:25:59;;;;;;;22.85;17.27;;;;;;;;;;6199774;22;20206;-62
2021/10/30 12:37:14;;;;;;;23.13;17.65;;;;;;;;;;6204898;22;20531;31
2021/10/30 12:51:22;;;;;;;24.15;19.00;;;;;;;;;;6320544;22;20506;31
2021/10/30 13:00:44;;;;;;;22.27;17.25;;;;;;;;;;6200947;22;20202;31
2021/10/30 13:05:09;;;;;;;21.90;17.85;;;;;;;;;;6288706;22;20555;31
2021/10/30 13:12:23;;;;;;;23.13;17.67;;;;;;;;;;6167529;22;20525;31
2021/10/30 13:19:12;;;;;;;24.40;18.10;;;;;;;;;;6172821;22;20575;-60
2021/10/30 13:21:38;;;;;;;23.92;18.50;;;;;;;;;;6149015;23;22541;31
2021/10/30 13:31:31;;;;;;;23.83;17.60;;;;;;;;;;6161366;22;1171671;31
2021/10/30 13:42:59;;;;;;;26.30;19.45;;;;;;;;;;6176922;22;20207;31
2021/10/30 13:47:08;;;;;;;25.80;19.77;;;;;;;;;;6166928;22;20522;-60
2021/10/30 14:10:28;;;;;;;26.40;21.88;;;;;;;;;;6201982;22;20202;31
2021/10/30 14:14:48;;;;;;;31.47;23.00;;;;;;;;;;6321949;22;20593;-61
2021/10/30 14:22:22;;;;;;;29.40;21.25;;;;;;;;;;6290661;22;20890;31
2021/10/30 14:29:03;;;;;;;29.65;21.67;;;;;;;;;;6204440;22;20556;31
2021/10/30 14:35:56;;;;;;;28.88;20.92;;;;;;;;;;6238595;22;20554;31
2021/10/30 14:52:37;;;;;;;25.02;18.73;;;;;;;;;;6285978;22;20205;31
2021/10/30 14:57:37;;;;;;;25.35;19.02;;;;;;;;;;6289045;22;20535;31
2021/10/30 15:04:14;;;;;;;24.48;19.67;;;;;;;;;;6203979;22;21471;31
2021/10/30 15:13:29;;;;;;;25.50;20.05;;;;;;;;;;6349520;22;20210;31
2021/10/30 15:20:41;;;;;;;28.98;21.27;;;;;;;;;;6149477;23;20211;31
2021/10/30 15:32:12;;;;;;;27.13;21.02;;;;;;;;;;6321786;22;20587;31
2021/10/30 15:39:00;;;;;;;27.98;21.85;;;;;;;;;;6321923;22;20529;31
2021/10/30 15:46:18;;;;;;;29.48;23.17;;;;;;;;;;6290631;22;20572;31
2021/10/30 16:01:06;;;;;;;32.55;24.45;;;;;;;;;;6258959;22;20552;31
2021/10/30 16:15:40;;;;;;;29.63;23.70;;;;;;;;;;6345518;22;20755;31
2021/10/30 16:30:01;;;;;;;31.02;23.50;;;;;;;;;;6290652;22;20528;31
2021/10/30 16:36:38;;;;;;;28.65;21.83;;;;;;;;;;6291115;22;20528;31
2021/10/30 16:51:10;;;;;;;26.95;21.98;;;;;;;;;;6291644;22;20661;31
2021/10/30 16:58:43;;;;;;;25.77;18.73;;;;;;;;;;6228251;22;20239;31
2021/10/30 17:07:26;;;;;;;20.42;16.92;;;;;;;;;;6287464;22;20203;31
2021/10/30 17:19:12;;;;;;;20.73;16.45;;;;;;;;;;6259013;22;20568;31
2021/10/30 17:25:52;;;;;;;22.23;16.35;;;;;;;;;;6291686;22;20549;31
2021/10/30 17:32:29;;;;;;;21.67;17.30;;;;;;;;;;6322711;22;20605;31
2021/10/30 17:41:51;;;;;;;23.65;17.80;;;;;;;;;;6225616;22;20197;31
2021/10/30 17:56:45;;;;;;;24.27;17.80;;;;;;;;;;6179423;22;20206;31
2021/10/30 18:00:54;;;;;;;24.35;18.00;;;;;;;;;;5886337;22;20675;31
2021/10/30 18:08:17;;;;;;;24.92;19.65;;;;;;;;;;5890255;22;20585;31
2021/10/30 18:15:09;;;;;;;25.55;19.55;;;;;;;;;;6234792;22;20808;31
2021/10/30 18:36:03;;;;;;;24.25;18.20;;;;;;;;;;6259710;22;20563;31
2021/10/30 18:49:48;;;;;;;21.08;17.65;;;;;;;;;;6227745;22;20505;-60
2021/10/30 18:58:58;;;;;;;23.30;18.92;;;;;;;;;;6135087;23;20219;31
2021/10/30 19:10:58;;;;;;;23.67;19.25;;;;;;;;;;6222855;22;21577;31
2021/10/30 19:28:21;;;;;;;25.92;19.63;;;;;;;;;;6202579;22;20206;31
2021/10/30 19:41:58;;;;;;;25.33;20.00;;;;;;;;;;6289758;22;20184;31
2021/10/30 19:46:18;;;;;;;28.08;21.67;;;;;;;;;;6260033;22;20569;-62
2021/10/30 20:00:07;;;;;;;25.52;20.30;;;;;;;;;;6174148;22;20685;-62
2021/10/30 20:02:33;;;;;;;26.13;20.55;;;;;;;;;;6148510;23;20219;31
2021/10/30 20:07:17;;;;;;;27.52;20.85;;;;;;;;;;6347342;22;20528;31
2021/10/30 20:17:16;;;;;;;26.73;21.30;;;;;;;;;;6262420;22;20205;31
2021/10/30 20:29:01;;;;;;;29.23;21.52;;;;;;;;;;6229449;22;21105;31
2021/10/30 20:38:17;;;;;;;30.33;21.42;;;;;;;;;;6256478;22;20197;31
2021/10/30 20:49:02;;;;;;;30.75;22.20;;;;;;;;;;6166491;22;20762;31
2021/10/30 20:58:12;;;;;;;29.50;22.42;;;;;;;;;;6202331;22;20206;31
2021/10/30 21:02:38;;;;;;;29.00;22.60;;;;;;;;;;6291848;22;20269;31
2021/10/30 21:16:31;;;;;;;30.48;22.45;;;;;;;;;;6289373;22;20584;31
2021/10/30 21:23:18;;;;;;;29.23;21.33;;;;;;;;;;6226435;22;20556;31
2021/10/30 21:37:42;;;;;;;31.35;23.33;;;;;;;;;;6260402;22;20537;-62
2021/10/30 21:40:07;;;;;;;29.90;21.95;;;;;;;;;;6226187;22;20186;31
2021/10/30 21:52:50;;;;;;;31.50;22.75;;;;;;;;;;6228552;22;20534;31
2021/10/30 22:02:08;;;;;;;32.45;23.38;;;;;;;;;;6172125;22;20218;31
2021/10/30 22:06:50;;;;;;;31.25;23.27;;;;;;;;;;6322936;22;20513;31
2021/10/30 22:16:03;;;;;;;33.33;25.02;;;;;;;;;;6165544;22;20218;31
2021/10/30 22:27:34;;;;;;;35.90;26.05;;;;;;;;;;6290079;22;20571;-60
2021/10/30 22:37:02;;;;;;;34.13;25.17;;;;;;;;;;5791275;23;20215;31
2021/10/30 22:41:37;;;;;;;33.20;24.63;;;;;;;;;;6233535;22;20529;31
2021/10/30 22:48:23;;;;;;;35.95;26.20;;;;;;;;;;6259387;22;20592;31
2021/10/30 22:57:32;;;;;;;35.40;25.25;;;;;;;;;;6200498;22;20206;31
2021/10/30 23:03:00;;;;;;;35.20;27.05;;;;;;;;;;6257245;22;20537;31
2021/10/30 23:05:29;;;;;;;38.92;26.65;;;;;;;;;;6224615;22;20187;31
2021/10/30 23:09:53;;;;;;;36.13;25.70;;;;;;;;;;6203083;22;20527;31
2021/10/30 23:24:05;;;;;;;34.22;25.50;;;;;;;;;;6174039;22;20546;-59
2021/10/30 23:30:54;;;;;;;33.70;24.33;;;;;;;;;;6239673;22;20576;31
2021/10/30 23:40:27;;;;;;;31.77;24.05;;;;;;;;;;6178204;22;21467;31
2021/10/30 23:44:55;;;;;;;30.88;23.30;;;;;;;;;;6168047;22;20541;31
2021/10/30 23:47:21;;;;;;;29.55;23.30;;;;;;;;;;6134705;23;20279;31
